sensor_id;sensor_type;location;lat;lon;timestamp;temperature;humidity
16392;DHT22;8305;-33.882;151.134;2022-12-07T00:00:00;25.70;99.90
16392;DHT22;8305;-33.882;151.134;2022-12-07T00:02:32;25.60;99.90
16392;DHT22;8305;-33.882;151.134;2022-12-07T00:05:02;25.60;99.90
16392;DHT22;8305;-33.882;151.134;2022-12-07T00:07:33;25.60;99.90
16392;DHT22;8305;-33.882;151.134;2022-12-07T00:10:07;25.70;99.90
16392;DHT22;8305;-33.882;151.134;2022-12-07T00:12:37;25.80;99.90
16392;DHT22;8305;-33.882;151.134;2022-12-07T00:15:09;26.20;99.90
16392;DHT22;8305;-33.882;151.134;2022-12-07T00:17:40;26.50;99.90
16392;DHT22;8305;-33.882;151.134;2022-12-07T00:20:11;26.50;99.90
16392;DHT22;8305;-33.882;151.134;2022-12-07T00:22:42;26.50;99.90
16392;DHT22;8305;-33.882;151.134;2022-12-07T00:25:15;26.60;99.90
16392;DHT22;8305;-33.882;151.134;2022-12-07T00:27:45;26.70;99.90
16392;DHT22;8305;-33.882;151.134;2022-12-07T00:30:16;26.90;99.90
16392;DHT22;8305;-33.882;151.134;2022-12-07T00:32:47;27.00;99.90
16392;DHT22;8305;-33.882;151.134;2022-12-07T00:35:18;27.10;99.90
16392;DHT22;8305;-33.882;151.134;2022-12-07T00:37:49;27.30;99.90
16392;DHT22;8305;-33.882;151.134;2022-12-07T00:40:21;27.60;99.90
16392;DHT22;8305;-33.882;151.134;2022-12-07T00:42:52;27.80;99.90
16392;DHT22;8305;-33.882;151.134;2022-12-07T00:45:32;28.00;99.90
16392;DHT22;8305;-33.882;151.134;2022-12-07T00:48:03;28.00;99.90
16392;DHT22;8305;-33.882;151.134;2022-12-07T00:50:33;28.00;99.90
16392;DHT22;8305;-33.882;151.134;2022-12-07T00:53:04;28.00;99.90
16392;DHT22;8305;-33.882;151.134;2022-12-07T00:55:37;28.10;99.90
16392;DHT22;8305;-33.882;151.134;2022-12-07T00:58:08;28.00;99.90
16392;DHT22;8305;-33.882;151.134;2022-12-07T01:00:40;27.90;99.90
16392;DHT22;8305;-33.882;151.134;2022-12-07T01:03:12;27.70;99.90
16392;DHT22;8305;-33.882;151.134;2022-12-07T01:05:51;27.50;99.90
16392;DHT22;8305;-33.882;151.134;2022-12-07T01:08:22;27.30;99.90
16392;DHT22;8305;-33.882;151.134;2022-12-07T01:11:02;27.10;99.90
16392;DHT22;8305;-33.882;151.134;2022-12-07T01:13:34;27.00;99.90
16392;DHT22;8305;-33.882;151.134;2022-12-07T01:16:06;26.90;99.90
16392;DHT22;8305;-33.882;151.134;2022-12-07T01:18:38;26.80;99.90
16392;DHT22;8305;-33.882;151.134;2022-12-07T01:21:11;26.70;99.90
16392;DHT22;8305;-33.882;151.134;2022-12-07T01:23:42;26.70;99.90
16392;DHT22;8305;-33.882;151.134;2022-12-07T01:26:18;26.60;99.90
16392;DHT22;8305;-33.882;151.134;2022-12-07T01:28:50;26.50;99.90
16392;DHT22;8305;-33.882;151.134;2022-12-07T01:31:23;26.50;99.90
16392;DHT22;8305;-33.882;151.134;2022-12-07T01:33:55;26.50;99.90
16392;DHT22;8305;-33.882;151.134;2022-12-07T01:36:27;26.50;99.90
16392;DHT22;8305;-33.882;151.134;2022-12-07T01:39:00;26.40;99.90
16392;DHT22;8305;-33.882;151.134;2022-12-07T01:41:35;26.40;99.90
16392;DHT22;8305;-33.882;151.134;2022-12-07T01:44:18;26.40;99.90
16392;DHT22;8305;-33.882;151.134;2022-12-07T01:46:50;26.30;99.90
16392;DHT22;8305;-33.882;151.134;2022-12-07T01:49:29;26.30;99.90
16392;DHT22;8305;-33.882;151.134;2022-12-07T01:52:13;26.20;99.90
16392;DHT22;8305;-33.882;151.134;2022-12-07T01:54:45;26.20;99.90
16392;DHT22;8305;-33.882;151.134;2022-12-07T01:57:20;26.20;99.90
16392;DHT22;8305;-33.882;151.134;2022-12-07T01:59:53;26.10;99.90
16392;DHT22;8305;-33.882;151.134;2022-12-07T02:02:25;26.20;99.90
16392;DHT22;8305;-33.882;151.134;2022-12-07T02:04:58;26.20;99.90
16392;DHT22;8305;-33.882;151.134;2022-12-07T02:07:30;26.20;99.90
16392;DHT22;8305;-33.882;151.134;2022-12-07T02:10:14;26.20;99.90
16392;DHT22;8305;-33.882;151.134;2022-12-07T02:12:48;26.10;99.90
16392;DHT22;8305;-33.882;151.134;2022-12-07T02:15:21;26.10;99.90
16392;DHT22;8305;-33.882;151.134;2022-12-07T02:18:00;26.10;99.90
16392;DHT22;8305;-33.882;151.134;2022-12-07T02:20:34;26.10;99.90
16392;DHT22;8305;-33.882;151.134;2022-12-07T02:29:21;26.30;99.90
16392;DHT22;8305;-33.882;151.134;2022-12-07T02:32:00;26.40;99.90
16392;DHT22;8305;-33.882;151.134;2022-12-07T02:34:41;26.40;99.90
16392;DHT22;8305;-33.882;151.134;2022-12-07T02:37:20;26.40;99.90
16392;DHT22;8305;-33.882;151.134;2022-12-07T02:39:55;26.40;99.90
16392;DHT22;8305;-33.882;151.134;2022-12-07T02:42:33;26.30;99.90
16392;DHT22;8305;-33.882;151.134;2022-12-07T02:45:09;26.30;99.90
16392;DHT22;8305;-33.882;151.134;2022-12-07T02:47:42;26.10;99.90
16392;DHT22;8305;-33.882;151.134;2022-12-07T02:50:14;26.00;99.90
16392;DHT22;8305;-33.882;151.134;2022-12-07T02:52:44;25.90;99.90
16392;DHT22;8305;-33.882;151.134;2022-12-07T02:55:17;25.80;99.90
16392;DHT22;8305;-33.882;151.134;2022-12-07T02:58:00;25.70;99.90
16392;DHT22;8305;-33.882;151.134;2022-12-07T03:00:43;25.70;99.90
16392;DHT22;8305;-33.882;151.134;2022-12-07T03:03:15;25.70;99.90
16392;DHT22;8305;-33.882;151.134;2022-12-07T03:06:01;25.60;99.90
16392;DHT22;8305;-33.882;151.134;2022-12-07T03:08:47;25.50;99.90
16392;DHT22;8305;-33.882;151.134;2022-12-07T03:11:25;25.50;99.90
16392;DHT22;8305;-33.882;151.134;2022-12-07T03:14:04;25.40;99.90
16392;DHT22;8305;-33.882;151.134;2022-12-07T03:16:43;25.40;99.90
16392;DHT22;8305;-33.882;151.134;2022-12-07T03:19:18;25.40;99.90
16392;DHT22;8305;-33.882;151.134;2022-12-07T03:21:53;25.40;99.90
16392;DHT22;8305;-33.882;151.134;2022-12-07T03:24:27;25.40;99.90
16392;DHT22;8305;-33.882;151.134;2022-12-07T03:27:03;25.40;99.90
16392;DHT22;8305;-33.882;151.134;2022-12-07T03:29:37;25.40;99.90
16392;DHT22;8305;-33.882;151.134;2022-12-07T03:32:16;25.50;99.90
16392;DHT22;8305;-33.882;151.134;2022-12-07T03:34:52;25.50;99.90
16392;DHT22;8305;-33.882;151.134;2022-12-07T03:37:26;25.50;99.90
16392;DHT22;8305;-33.882;151.134;2022-12-07T03:40:05;25.50;99.90
16392;DHT22;8305;-33.882;151.134;2022-12-07T03:42:38;25.40;99.90
16392;DHT22;8305;-33.882;151.134;2022-12-07T03:45:10;25.40;99.90
16392;DHT22;8305;-33.882;151.134;2022-12-07T03:47:46;25.50;99.90
16392;DHT22;8305;-33.882;151.134;2022-12-07T03:50:25;25.60;99.90
16392;DHT22;8305;-33.882;151.134;2022-12-07T03:53:02;25.60;99.90
16392;DHT22;8305;-33.882;151.134;2022-12-07T03:55:36;25.70;99.90
16392;DHT22;8305;-33.882;151.134;2022-12-07T03:58:12;25.70;99.90
16392;DHT22;8305;-33.882;151.134;2022-12-07T04:00:43;25.70;99.90
16392;DHT22;8305;-33.882;151.134;2022-12-07T04:03:16;25.70;99.90
16392;DHT22;8305;-33.882;151.134;2022-12-07T04:05:47;25.60;99.90
16392;DHT22;8305;-33.882;151.134;2022-12-07T04:08:18;25.60;99.90
16392;DHT22;8305;-33.882;151.134;2022-12-07T04:10:49;25.60;99.90
16392;DHT22;8305;-33.882;151.134;2022-12-07T04:13:20;25.50;99.90
16392;DHT22;8305;-33.882;151.134;2022-12-07T04:15:51;25.50;99.90
16392;DHT22;8305;-33.882;151.134;2022-12-07T04:18:24;25.60;99.90
16392;DHT22;8305;-33.882;151.134;2022-12-07T04:20:54;25.70;99.90
16392;DHT22;8305;-33.882;151.134;2022-12-07T04:23:25;25.80;99.90
16392;DHT22;8305;-33.882;151.134;2022-12-07T04:25:56;26.00;99.90
16392;DHT22;8305;-33.882;151.134;2022-12-07T04:28:27;26.10;99.90
16392;DHT22;8305;-33.882;151.134;2022-12-07T04:30:57;26.10;99.90
16392;DHT22;8305;-33.882;151.134;2022-12-07T04:33:31;26.10;99.90
16392;DHT22;8305;-33.882;151.134;2022-12-07T04:36:01;26.20;99.90
16392;DHT22;8305;-33.882;151.134;2022-12-07T04:38:32;26.30;99.90
16392;DHT22;8305;-33.882;151.134;2022-12-07T04:41:06;26.30;98.30
16392;DHT22;8305;-33.882;151.134;2022-12-07T04:43:37;26.40;98.20
16392;DHT22;8305;-33.882;151.134;2022-12-07T04:46:08;26.40;95.90
16392;DHT22;8305;-33.882;151.134;2022-12-07T04:48:41;26.40;96.60
16392;DHT22;8305;-33.882;151.134;2022-12-07T04:51:18;26.30;94.90
16392;DHT22;8305;-33.882;151.134;2022-12-07T04:53:49;26.40;94.60
16392;DHT22;8305;-33.882;151.134;2022-12-07T04:56:21;26.50;94.70
16392;DHT22;8305;-33.882;151.134;2022-12-07T04:58:53;26.50;93.40
16392;DHT22;8305;-33.882;151.134;2022-12-07T05:01:24;26.60;92.80
16392;DHT22;8305;-33.882;151.134;2022-12-07T05:03:57;26.60;91.80
16392;DHT22;8305;-33.882;151.134;2022-12-07T05:06:28;26.60;91.90
16392;DHT22;8305;-33.882;151.134;2022-12-07T05:08:59;26.70;92.40
16392;DHT22;8305;-33.882;151.134;2022-12-07T05:11:30;26.70;92.10
16392;DHT22;8305;-33.882;151.134;2022-12-07T05:14:12;26.70;92.70
16392;DHT22;8305;-33.882;151.134;2022-12-07T05:16:44;26.60;93.40
16392;DHT22;8305;-33.882;151.134;2022-12-07T05:19:17;26.40;92.80
16392;DHT22;8305;-33.882;151.134;2022-12-07T05:21:49;26.40;93.50
16392;DHT22;8305;-33.882;151.134;2022-12-07T05:24:23;26.30;92.90
16392;DHT22;8305;-33.882;151.134;2022-12-07T05:26:54;26.30;92.90
16392;DHT22;8305;-33.882;151.134;2022-12-07T05:29:24;26.20;93.10
16392;DHT22;8305;-33.882;151.134;2022-12-07T05:31:56;26.10;93.40
16392;DHT22;8305;-33.882;151.134;2022-12-07T05:34:28;26.10;93.80
16392;DHT22;8305;-33.882;151.134;2022-12-07T05:36:59;26.00;93.80
16392;DHT22;8305;-33.882;151.134;2022-12-07T05:39:30;25.90;93.40
16392;DHT22;8305;-33.882;151.134;2022-12-07T05:42:01;25.90;94.00
16392;DHT22;8305;-33.882;151.134;2022-12-07T05:44:45;25.90;93.80
16392;DHT22;8305;-33.882;151.134;2022-12-07T05:47:16;25.90;93.70
16392;DHT22;8305;-33.882;151.134;2022-12-07T05:49:49;25.90;93.40
16392;DHT22;8305;-33.882;151.134;2022-12-07T05:52:20;26.00;93.50
16392;DHT22;8305;-33.882;151.134;2022-12-07T05:54:50;26.00;93.40
16392;DHT22;8305;-33.882;151.134;2022-12-07T05:57:21;25.90;93.70
16392;DHT22;8305;-33.882;151.134;2022-12-07T05:59:52;25.90;93.80
16392;DHT22;8305;-33.882;151.134;2022-12-07T06:02:21;25.80;93.50
16392;DHT22;8305;-33.882;151.134;2022-12-07T06:04:54;25.80;93.90
16392;DHT22;8305;-33.882;151.134;2022-12-07T06:07:27;25.70;94.10
16392;DHT22;8305;-33.882;151.134;2022-12-07T06:09:57;25.60;94.40
16392;DHT22;8305;-33.882;151.134;2022-12-07T06:12:28;25.60;94.30
16392;DHT22;8305;-33.882;151.134;2022-12-07T06:15:05;25.60;93.60
16392;DHT22;8305;-33.882;151.134;2022-12-07T06:17:36;25.60;94.00
16392;DHT22;8305;-33.882;151.134;2022-12-07T06:20:09;25.60;94.70
16392;DHT22;8305;-33.882;151.134;2022-12-07T06:22:41;25.60;94.40
16392;DHT22;8305;-33.882;151.134;2022-12-07T06:25:12;25.60;94.50
16392;DHT22;8305;-33.882;151.134;2022-12-07T06:27:43;25.60;95.00
16392;DHT22;8305;-33.882;151.134;2022-12-07T06:30:13;25.60;95.40
16392;DHT22;8305;-33.882;151.134;2022-12-07T06:32:44;25.40;96.00
16392;DHT22;8305;-33.882;151.134;2022-12-07T06:35:17;25.40;96.20
16392;DHT22;8305;-33.882;151.134;2022-12-07T06:37:48;25.20;97.20
16392;DHT22;8305;-33.882;151.134;2022-12-07T06:40:19;25.20;98.40
16392;DHT22;8305;-33.882;151.134;2022-12-07T06:42:49;25.10;99.90
16392;DHT22;8305;-33.882;151.134;2022-12-07T06:45:20;25.10;99.90
16392;DHT22;8305;-33.882;151.134;2022-12-07T06:47:51;25.10;99.90
16392;DHT22;8305;-33.882;151.134;2022-12-07T06:50:23;25.10;99.90
16392;DHT22;8305;-33.882;151.134;2022-12-07T06:52:54;25.00;99.90
16392;DHT22;8305;-33.882;151.134;2022-12-07T06:55:25;25.00;99.90
16392;DHT22;8305;-33.882;151.134;2022-12-07T06:57:56;25.00;99.90
16392;DHT22;8305;-33.882;151.134;2022-12-07T07:00:27;25.00;99.90
16392;DHT22;8305;-33.882;151.134;2022-12-07T07:02:58;24.90;99.90
16392;DHT22;8305;-33.882;151.134;2022-12-07T07:05:31;24.80;99.90
16392;DHT22;8305;-33.882;151.134;2022-12-07T07:08:02;24.80;99.90
16392;DHT22;8305;-33.882;151.134;2022-12-07T07:10:33;24.70;99.90
16392;DHT22;8305;-33.882;151.134;2022-12-07T07:13:04;24.60;99.90
16392;DHT22;8305;-33.882;151.134;2022-12-07T07:15:36;24.60;99.90
16392;DHT22;8305;-33.882;151.134;2022-12-07T07:18:07;24.60;99.90
16392;DHT22;8305;-33.882;151.134;2022-12-07T07:20:40;24.50;99.90
16392;DHT22;8305;-33.882;151.134;2022-12-07T07:23:14;24.50;99.90
16392;DHT22;8305;-33.882;151.134;2022-12-07T07:25:45;24.40;99.90
16392;DHT22;8305;-33.882;151.134;2022-12-07T07:28:16;24.40;99.90
16392;DHT22;8305;-33.882;151.134;2022-12-07T07:30:47;24.40;99.90
16392;DHT22;8305;-33.882;151.134;2022-12-07T07:33:18;24.40;99.90
16392;DHT22;8305;-33.882;151.134;2022-12-07T07:35:50;24.40;99.90
16392;DHT22;8305;-33.882;151.134;2022-12-07T07:38:21;24.30;99.90
16392;DHT22;8305;-33.882;151.134;2022-12-07T07:40:52;24.30;99.90
16392;DHT22;8305;-33.882;151.134;2022-12-07T07:43:22;24.30;99.90
16392;DHT22;8305;-33.882;151.134;2022-12-07T07:45:53;24.30;99.90
16392;DHT22;8305;-33.882;151.134;2022-12-07T07:48:24;24.30;99.90
16392;DHT22;8305;-33.882;151.134;2022-12-07T07:50:57;24.10;99.90
16392;DHT22;8305;-33.882;151.134;2022-12-07T07:53:27;24.20;99.90
16392;DHT22;8305;-33.882;151.134;2022-12-07T07:55:58;24.10;99.90
16392;DHT22;8305;-33.882;151.134;2022-12-07T07:58:29;24.10;99.90
16392;DHT22;8305;-33.882;151.134;2022-12-07T08:01:05;24.10;99.90
16392;DHT22;8305;-33.882;151.134;2022-12-07T08:03:36;24.00;99.90
16392;DHT22;8305;-33.882;151.134;2022-12-07T08:06:09;24.00;99.90
16392;DHT22;8305;-33.882;151.134;2022-12-07T08:08:40;24.00;99.90
16392;DHT22;8305;-33.882;151.134;2022-12-07T08:11:12;23.90;99.90
16392;DHT22;8305;-33.882;151.134;2022-12-07T08:13:44;23.90;99.90
16392;DHT22;8305;-33.882;151.134;2022-12-07T08:16:15;23.90;99.90
16392;DHT22;8305;-33.882;151.134;2022-12-07T08:18:46;23.80;99.90
16392;DHT22;8305;-33.882;151.134;2022-12-07T08:21:19;23.80;99.90
16392;DHT22;8305;-33.882;151.134;2022-12-07T08:23:49;23.80;99.90
16392;DHT22;8305;-33.882;151.134;2022-12-07T08:26:20;23.80;99.90
16392;DHT22;8305;-33.882;151.134;2022-12-07T08:28:52;23.80;99.90
16392;DHT22;8305;-33.882;151.134;2022-12-07T08:31:23;23.80;99.90
16392;DHT22;8305;-33.882;151.134;2022-12-07T08:33:55;23.70;99.90
16392;DHT22;8305;-33.882;151.134;2022-12-07T08:36:28;23.70;99.90
16392;DHT22;8305;-33.882;151.134;2022-12-07T08:38:59;23.70;99.90
16392;DHT22;8305;-33.882;151.134;2022-12-07T08:41:30;23.70;99.90
16392;DHT22;8305;-33.882;151.134;2022-12-07T08:44:01;23.70;99.90
16392;DHT22;8305;-33.882;151.134;2022-12-07T08:46:33;23.60;99.90
16392;DHT22;8305;-33.882;151.134;2022-12-07T08:49:07;23.60;99.90
16392;DHT22;8305;-33.882;151.134;2022-12-07T08:51:41;23.60;99.90
16392;DHT22;8305;-33.882;151.134;2022-12-07T08:54:16;23.50;99.90
16392;DHT22;8305;-33.882;151.134;2022-12-07T08:56:48;23.50;99.90
16392;DHT22;8305;-33.882;151.134;2022-12-07T08:59:21;23.40;99.90
16392;DHT22;8305;-33.882;151.134;2022-12-07T09:01:53;23.40;99.90
16392;DHT22;8305;-33.882;151.134;2022-12-07T09:04:24;23.40;99.90
16392;DHT22;8305;-33.882;151.134;2022-12-07T09:07:01;23.30;99.90
16392;DHT22;8305;-33.882;151.134;2022-12-07T09:09:34;23.30;99.90
16392;DHT22;8305;-33.882;151.134;2022-12-07T09:12:05;23.30;99.90
16392;DHT22;8305;-33.882;151.134;2022-12-07T09:14:36;23.30;99.90
16392;DHT22;8305;-33.882;151.134;2022-12-07T09:17:08;23.30;99.90
16392;DHT22;8305;-33.882;151.134;2022-12-07T09:19:39;23.30;99.90
16392;DHT22;8305;-33.882;151.134;2022-12-07T09:22:13;23.20;99.90
16392;DHT22;8305;-33.882;151.134;2022-12-07T09:24:44;23.20;99.90
16392;DHT22;8305;-33.882;151.134;2022-12-07T09:27:14;23.20;99.90
16392;DHT22;8305;-33.882;151.134;2022-12-07T09:29:46;23.20;99.90
16392;DHT22;8305;-33.882;151.134;2022-12-07T09:32:17;23.20;99.90
16392;DHT22;8305;-33.882;151.134;2022-12-07T09:34:51;23.20;99.90
16392;DHT22;8305;-33.882;151.134;2022-12-07T09:37:23;23.20;99.90
16392;DHT22;8305;-33.882;151.134;2022-12-07T09:39:54;23.20;99.90
16392;DHT22;8305;-33.882;151.134;2022-12-07T09:42:30;23.10;99.90
16392;DHT22;8305;-33.882;151.134;2022-12-07T09:45:04;23.10;99.90
16392;DHT22;8305;-33.882;151.134;2022-12-07T09:47:35;23.00;99.90
16392;DHT22;8305;-33.882;151.134;2022-12-07T09:50:12;23.00;99.90
16392;DHT22;8305;-33.882;151.134;2022-12-07T09:52:45;23.00;99.90
16392;DHT22;8305;-33.882;151.134;2022-12-07T09:55:22;23.00;99.90
16392;DHT22;8305;-33.882;151.134;2022-12-07T09:57:54;22.90;99.90
16392;DHT22;8305;-33.882;151.134;2022-12-07T10:00:26;22.80;99.90
16392;DHT22;8305;-33.882;151.134;2022-12-07T10:02:58;22.80;99.90
16392;DHT22;8305;-33.882;151.134;2022-12-07T10:05:30;22.80;99.90
16392;DHT22;8305;-33.882;151.134;2022-12-07T10:08:05;22.70;99.90
16392;DHT22;8305;-33.882;151.134;2022-12-07T10:10:36;22.70;99.90
16392;DHT22;8305;-33.882;151.134;2022-12-07T10:13:08;22.60;99.90
16392;DHT22;8305;-33.882;151.134;2022-12-07T10:15:51;22.60;99.90
16392;DHT22;8305;-33.882;151.134;2022-12-07T10:18:30;22.50;99.90
16392;DHT22;8305;-33.882;151.134;2022-12-07T10:21:12;22.50;99.90
16392;DHT22;8305;-33.882;151.134;2022-12-07T10:24:00;22.50;99.90
16392;DHT22;8305;-33.882;151.134;2022-12-07T10:26:33;22.50;99.90
16392;DHT22;8305;-33.882;151.134;2022-12-07T10:29:14;22.40;99.90
16392;DHT22;8305;-33.882;151.134;2022-12-07T10:31:48;22.40;99.90
16392;DHT22;8305;-33.882;151.134;2022-12-07T10:34:23;22.40;99.90
16392;DHT22;8305;-33.882;151.134;2022-12-07T10:37:06;22.40;99.90
16392;DHT22;8305;-33.882;151.134;2022-12-07T10:39:45;22.40;99.90
16392;DHT22;8305;-33.882;151.134;2022-12-07T10:42:21;22.50;99.90
16392;DHT22;8305;-33.882;151.134;2022-12-07T10:45:09;22.50;99.90
16392;DHT22;8305;-33.882;151.134;2022-12-07T10:47:46;22.50;99.90
16392;DHT22;8305;-33.882;151.134;2022-12-07T10:50:36;22.50;99.90
16392;DHT22;8305;-33.882;151.134;2022-12-07T10:53:43;22.50;99.90
16392;DHT22;8305;-33.882;151.134;2022-12-07T11:02:20;22.50;99.90
16392;DHT22;8305;-33.882;151.134;2022-12-07T11:05:01;22.50;99.90
16392;DHT22;8305;-33.882;151.134;2022-12-07T11:07:41;22.50;99.90
16392;DHT22;8305;-33.882;151.134;2022-12-07T11:10:18;22.40;99.90
16392;DHT22;8305;-33.882;151.134;2022-12-07T11:13:03;22.40;99.90
16392;DHT22;8305;-33.882;151.134;2022-12-07T11:15:59;22.40;99.90
16392;DHT22;8305;-33.882;151.134;2022-12-07T11:18:39;22.40;99.90
16392;DHT22;8305;-33.882;151.134;2022-12-07T11:21:20;22.40;99.90
16392;DHT22;8305;-33.882;151.134;2022-12-07T11:24:01;22.40;99.90
16392;DHT22;8305;-33.882;151.134;2022-12-07T11:26:50;22.40;99.90
16392;DHT22;8305;-33.882;151.134;2022-12-07T11:32:45;22.40;99.90
16392;DHT22;8305;-33.882;151.134;2022-12-07T11:35:33;22.30;99.90
16392;DHT22;8305;-33.882;151.134;2022-12-07T11:38:12;22.40;99.90
16392;DHT22;8305;-33.882;151.134;2022-12-07T11:40:46;22.40;99.90
16392;DHT22;8305;-33.882;151.134;2022-12-07T11:43:24;22.40;99.90
16392;DHT22;8305;-33.882;151.134;2022-12-07T11:46:02;22.40;99.90
16392;DHT22;8305;-33.882;151.134;2022-12-07T11:48:37;22.40;99.90
16392;DHT22;8305;-33.882;151.134;2022-12-07T11:51:11;22.40;99.90
16392;DHT22;8305;-33.882;151.134;2022-12-07T11:53:46;22.40;99.90
16392;DHT22;8305;-33.882;151.134;2022-12-07T11:56:21;22.40;99.90
16392;DHT22;8305;-33.882;151.134;2022-12-07T11:58:56;22.30;99.90
16392;DHT22;8305;-33.882;151.134;2022-12-07T12:01:41;22.30;99.90
16392;DHT22;8305;-33.882;151.134;2022-12-07T12:04:25;22.30;99.90
16392;DHT22;8305;-33.882;151.134;2022-12-07T12:06:57;22.30;99.90
16392;DHT22;8305;-33.882;151.134;2022-12-07T12:09:30;22.20;99.90
16392;DHT22;8305;-33.882;151.134;2022-12-07T12:12:27;22.20;99.90
16392;DHT22;8305;-33.882;151.134;2022-12-07T12:15:15;22.20;99.90
16392;DHT22;8305;-33.882;151.134;2022-12-07T12:18:13;22.20;99.90
16392;DHT22;8305;-33.882;151.134;2022-12-07T12:20:49;22.20;99.90
16392;DHT22;8305;-33.882;151.134;2022-12-07T12:23:22;22.10;99.90
16392;DHT22;8305;-33.882;151.134;2022-12-07T12:25:55;22.10;99.90
16392;DHT22;8305;-33.882;151.134;2022-12-07T12:28:29;22.10;99.90
16392;DHT22;8305;-33.882;151.134;2022-12-07T12:31:08;22.00;99.90
16392;DHT22;8305;-33.882;151.134;2022-12-07T12:33:44;22.00;99.90
16392;DHT22;8305;-33.882;151.134;2022-12-07T12:36:22;22.00;99.90
16392;DHT22;8305;-33.882;151.134;2022-12-07T12:39:09;21.90;99.90
16392;DHT22;8305;-33.882;151.134;2022-12-07T12:41:58;21.90;99.90
16392;DHT22;8305;-33.882;151.134;2022-12-07T12:47:54;21.80;99.90
16392;DHT22;8305;-33.882;151.134;2022-12-07T12:50:35;21.90;99.90
16392;DHT22;8305;-33.882;151.134;2022-12-07T12:53:20;21.90;99.90
16392;DHT22;8305;-33.882;151.134;2022-12-07T12:56:25;21.90;99.90
16392;DHT22;8305;-33.882;151.134;2022-12-07T12:59:23;21.90;99.90
16392;DHT22;8305;-33.882;151.134;2022-12-07T13:01:56;21.90;99.90
16392;DHT22;8305;-33.882;151.134;2022-12-07T13:08:01;21.80;99.90
16392;DHT22;8305;-33.882;151.134;2022-12-07T13:10:43;21.70;99.90
16392;DHT22;8305;-33.882;151.134;2022-12-07T13:13:32;21.70;99.90
16392;DHT22;8305;-33.882;151.134;2022-12-07T13:16:36;21.60;99.90
16392;DHT22;8305;-33.882;151.134;2022-12-07T13:25:27;21.40;99.90
16392;DHT22;8305;-33.882;151.134;2022-12-07T13:28:04;21.30;99.90
16392;DHT22;8305;-33.882;151.134;2022-12-07T13:30:46;21.30;99.90
16392;DHT22;8305;-33.882;151.134;2022-12-07T13:33:18;21.30;99.90
16392;DHT22;8305;-33.882;151.134;2022-12-07T13:35:55;21.20;99.90
16392;DHT22;8305;-33.882;151.134;2022-12-07T13:38:30;21.20;99.90
16392;DHT22;8305;-33.882;151.134;2022-12-07T13:41:12;21.10;99.90
16392;DHT22;8305;-33.882;151.134;2022-12-07T13:43:48;21.10;99.90
16392;DHT22;8305;-33.882;151.134;2022-12-07T13:46:22;21.10;99.90
16392;DHT22;8305;-33.882;151.134;2022-12-07T13:48:54;21.10;99.90
16392;DHT22;8305;-33.882;151.134;2022-12-07T13:51:26;21.10;99.90
16392;DHT22;8305;-33.882;151.134;2022-12-07T13:54:06;21.10;99.90
16392;DHT22;8305;-33.882;151.134;2022-12-07T13:56:41;21.10;99.90
16392;DHT22;8305;-33.882;151.134;2022-12-07T13:59:16;21.20;99.90
16392;DHT22;8305;-33.882;151.134;2022-12-07T14:01:48;21.20;99.90
16392;DHT22;8305;-33.882;151.134;2022-12-07T14:04:36;21.20;99.90
16392;DHT22;8305;-33.882;151.134;2022-12-07T14:07:28;21.20;99.90
16392;DHT22;8305;-33.882;151.134;2022-12-07T14:10:00;21.20;99.90
16392;DHT22;8305;-33.882;151.134;2022-12-07T14:12:36;21.20;99.90
16392;DHT22;8305;-33.882;151.134;2022-12-07T14:15:20;21.20;99.90
16392;DHT22;8305;-33.882;151.134;2022-12-07T14:17:53;21.10;99.90
16392;DHT22;8305;-33.882;151.134;2022-12-07T14:20:34;21.10;99.90
16392;DHT22;8305;-33.882;151.134;2022-12-07T14:23:06;21.00;99.90
16392;DHT22;8305;-33.882;151.134;2022-12-07T14:25:52;21.10;99.90
16392;DHT22;8305;-33.882;151.134;2022-12-07T14:28:29;21.00;99.90
16392;DHT22;8305;-33.882;151.134;2022-12-07T14:31:00;21.00;99.90
16392;DHT22;8305;-33.882;151.134;2022-12-07T14:33:32;21.00;99.90
16392;DHT22;8305;-33.882;151.134;2022-12-07T14:36:02;21.00;99.90
16392;DHT22;8305;-33.882;151.134;2022-12-07T14:38:33;21.00;99.90
16392;DHT22;8305;-33.882;151.134;2022-12-07T14:41:04;21.00;99.90
16392;DHT22;8305;-33.882;151.134;2022-12-07T14:43:56;20.90;99.90
16392;DHT22;8305;-33.882;151.134;2022-12-07T14:46:27;20.80;99.90
16392;DHT22;8305;-33.882;151.134;2022-12-07T14:48:58;20.80;99.90
16392;DHT22;8305;-33.882;151.134;2022-12-07T14:51:29;20.80;99.90
16392;DHT22;8305;-33.882;151.134;2022-12-07T14:54:00;20.80;99.90
16392;DHT22;8305;-33.882;151.134;2022-12-07T14:56:30;20.80;99.90
16392;DHT22;8305;-33.882;151.134;2022-12-07T14:59:03;20.80;99.90
16392;DHT22;8305;-33.882;151.134;2022-12-07T15:01:34;20.70;99.90
16392;DHT22;8305;-33.882;151.134;2022-12-07T15:04:05;20.70;99.90
16392;DHT22;8305;-33.882;151.134;2022-12-07T15:06:35;20.70;99.90
16392;DHT22;8305;-33.882;151.134;2022-12-07T15:09:06;20.70;99.90
16392;DHT22;8305;-33.882;151.134;2022-12-07T15:11:37;20.60;99.90
16392;DHT22;8305;-33.882;151.134;2022-12-07T15:14:09;20.60;99.90
16392;DHT22;8305;-33.882;151.134;2022-12-07T15:16:41;20.60;99.90
16392;DHT22;8305;-33.882;151.134;2022-12-07T15:19:14;20.50;99.90
16392;DHT22;8305;-33.882;151.134;2022-12-07T15:21:45;20.50;99.90
16392;DHT22;8305;-33.882;151.134;2022-12-07T15:24:16;20.50;99.90
16392;DHT22;8305;-33.882;151.134;2022-12-07T15:26:47;20.50;99.90
16392;DHT22;8305;-33.882;151.134;2022-12-07T15:29:20;20.50;99.90
16392;DHT22;8305;-33.882;151.134;2022-12-07T15:31:51;20.50;99.90
16392;DHT22;8305;-33.882;151.134;2022-12-07T15:34:22;20.40;99.90
16392;DHT22;8305;-33.882;151.134;2022-12-07T15:36:54;20.40;99.90
16392;DHT22;8305;-33.882;151.134;2022-12-07T15:39:25;20.40;99.90
16392;DHT22;8305;-33.882;151.134;2022-12-07T15:41:55;20.40;99.90
16392;DHT22;8305;-33.882;151.134;2022-12-07T15:44:28;20.40;99.90
16392;DHT22;8305;-33.882;151.134;2022-12-07T15:47:14;20.40;99.90
16392;DHT22;8305;-33.882;151.134;2022-12-07T15:49:45;20.40;99.90
16392;DHT22;8305;-33.882;151.134;2022-12-07T15:52:16;20.40;99.90
16392;DHT22;8305;-33.882;151.134;2022-12-07T15:54:47;20.40;99.90
16392;DHT22;8305;-33.882;151.134;2022-12-07T15:57:17;20.40;99.90
16392;DHT22;8305;-33.882;151.134;2022-12-07T15:59:50;20.40;99.90
16392;DHT22;8305;-33.882;151.134;2022-12-07T16:02:21;20.40;99.90
16392;DHT22;8305;-33.882;151.134;2022-12-07T16:04:52;20.30;99.90
16392;DHT22;8305;-33.882;151.134;2022-12-07T16:07:23;20.30;99.90
16392;DHT22;8305;-33.882;151.134;2022-12-07T16:09:54;20.30;99.90
16392;DHT22;8305;-33.882;151.134;2022-12-07T16:12:25;20.30;99.90
16392;DHT22;8305;-33.882;151.134;2022-12-07T16:14:57;20.20;99.90